sensor_id;sensor_type;location;lat;lon;timestamp;temperature;humidity
11284;DHT22;5698;47.332;11.180;2022-09-20T00:00:31;2.00;99.90
11284;DHT22;5698;47.332;11.180;2022-09-20T00:02:58;1.90;99.90
11284;DHT22;5698;47.332;11.180;2022-09-20T00:05:25;2.00;99.90
11284;DHT22;5698;47.332;11.180;2022-09-20T00:07:52;2.10;99.90
11284;DHT22;5698;47.332;11.180;2022-09-20T00:10:19;2.20;99.90
11284;DHT22;5698;47.332;11.180;2022-09-20T00:12:49;2.20;99.90
11284;DHT22;5698;47.332;11.180;2022-09-20T00:15:16;2.30;99.90
11284;DHT22;5698;47.332;11.180;2022-09-20T00:17:43;2.30;99.90
11284;DHT22;5698;47.332;11.180;2022-09-20T00:20:10;2.30;99.90
11284;DHT22;5698;47.332;11.180;2022-09-20T00:22:37;2.30;99.90
11284;DHT22;5698;47.332;11.180;2022-09-20T00:25:05;2.30;99.90
11284;DHT22;5698;47.332;11.180;2022-09-20T00:27:32;2.40;99.90
11284;DHT22;5698;47.332;11.180;2022-09-20T00:30:00;2.40;99.90
11284;DHT22;5698;47.332;11.180;2022-09-20T00:32:27;2.30;99.90
11284;DHT22;5698;47.332;11.180;2022-09-20T00:34:54;2.30;99.90
11284;DHT22;5698;47.332;11.180;2022-09-20T00:37:32;2.20;99.90
11284;DHT22;5698;47.332;11.180;2022-09-20T00:39:59;2.20;99.90
11284;DHT22;5698;47.332;11.180;2022-09-20T00:42:27;2.20;99.90
11284;DHT22;5698;47.332;11.180;2022-09-20T00:44:56;2.20;99.90
11284;DHT22;5698;47.332;11.180;2022-09-20T00:47:36;2.20;99.90
11284;DHT22;5698;47.332;11.180;2022-09-20T00:50:27;2.10;99.90
11284;DHT22;5698;47.332;11.180;2022-09-20T00:52:59;2.00;99.90
11284;DHT22;5698;47.332;11.180;2022-09-20T00:55:28;1.80;99.90
11284;DHT22;5698;47.332;11.180;2022-09-20T00:57:56;1.70;99.90
11284;DHT22;5698;47.332;11.180;2022-09-20T01:00:23;1.60;99.90
11284;DHT22;5698;47.332;11.180;2022-09-20T01:02:54;1.60;99.90
11284;DHT22;5698;47.332;11.180;2022-09-20T01:05:23;1.60;99.90
11284;DHT22;5698;47.332;11.180;2022-09-20T01:07:50;1.60;99.90
11284;DHT22;5698;47.332;11.180;2022-09-20T01:10:18;1.70;99.90
11284;DHT22;5698;47.332;11.180;2022-09-20T01:12:46;1.70;99.90
11284;DHT22;5698;47.332;11.180;2022-09-20T01:15:15;1.70;99.90
11284;DHT22;5698;47.332;11.180;2022-09-20T01:17:45;1.70;99.90
11284;DHT22;5698;47.332;11.180;2022-09-20T01:20:18;1.60;99.90
11284;DHT22;5698;47.332;11.180;2022-09-20T01:22:59;1.60;99.90
11284;DHT22;5698;47.332;11.180;2022-09-20T01:28:35;1.70;99.90
11284;DHT22;5698;47.332;11.180;2022-09-20T01:31:07;1.80;99.90
11284;DHT22;5698;47.332;11.180;2022-09-20T01:33:40;1.90;99.90
11284;DHT22;5698;47.332;11.180;2022-09-20T01:36:13;1.90;99.90
11284;DHT22;5698;47.332;11.180;2022-09-20T01:38:47;1.80;99.90
11284;DHT22;5698;47.332;11.180;2022-09-20T01:41:22;1.80;99.90
11284;DHT22;5698;47.332;11.180;2022-09-20T01:43:53;1.80;99.90
11284;DHT22;5698;47.332;11.180;2022-09-20T01:46:28;1.80;99.90
11284;DHT22;5698;47.332;11.180;2022-09-20T01:49:06;1.90;99.90
11284;DHT22;5698;47.332;11.180;2022-09-20T01:52:03;1.80;99.90
11284;DHT22;5698;47.332;11.180;2022-09-20T01:55:03;1.80;99.90
11284;DHT22;5698;47.332;11.180;2022-09-20T02:00:25;1.90;99.90
11284;DHT22;5698;47.332;11.180;2022-09-20T02:06:07;1.90;99.90
11284;DHT22;5698;47.332;11.180;2022-09-20T02:12:04;1.60;99.90
11284;DHT22;5698;47.332;11.180;2022-09-20T02:14:44;1.50;99.90
11284;DHT22;5698;47.332;11.180;2022-09-20T02:17:21;1.50;99.90
11284;DHT22;5698;47.332;11.180;2022-09-20T02:20:05;1.50;99.90
11284;DHT22;5698;47.332;11.180;2022-09-20T02:22:59;1.50;99.90
11284;DHT22;5698;47.332;11.180;2022-09-20T02:25:53;1.50;99.90
11284;DHT22;5698;47.332;11.180;2022-09-20T02:28:33;1.60;99.90
11284;DHT22;5698;47.332;11.180;2022-09-20T02:31:13;1.50;99.90
11284;DHT22;5698;47.332;11.180;2022-09-20T02:33:56;1.60;99.90
11284;DHT22;5698;47.332;11.180;2022-09-20T02:36:35;1.70;99.90
11284;DHT22;5698;47.332;11.180;2022-09-20T02:39:10;1.60;99.90
11284;DHT22;5698;47.332;11.180;2022-09-20T02:41:55;1.70;99.90
11284;DHT22;5698;47.332;11.180;2022-09-20T02:44:45;1.60;99.90
11284;DHT22;5698;47.332;11.180;2022-09-20T02:47:19;1.60;99.90
11284;DHT22;5698;47.332;11.180;2022-09-20T02:50:07;1.50;99.90
11284;DHT22;5698;47.332;11.180;2022-09-20T02:52:43;1.70;99.90
11284;DHT22;5698;47.332;11.180;2022-09-20T02:55:17;1.70;99.90
11284;DHT22;5698;47.332;11.180;2022-09-20T02:57:53;1.60;99.90
11284;DHT22;5698;47.332;11.180;2022-09-20T03:00:23;1.60;99.90
11284;DHT22;5698;47.332;11.180;2022-09-20T03:03:02;1.50;99.90
11284;DHT22;5698;47.332;11.180;2022-09-20T03:05:40;1.50;99.90
11284;DHT22;5698;47.332;11.180;2022-09-20T03:08:19;1.50;99.90
11284;DHT22;5698;47.332;11.180;2022-09-20T03:10:55;1.50;99.90
11284;DHT22;5698;47.332;11.180;2022-09-20T03:13:32;1.60;99.90
11284;DHT22;5698;47.332;11.180;2022-09-20T03:16:10;1.60;99.90
11284;DHT22;5698;47.332;11.180;2022-09-20T03:18:46;1.50;99.90
11284;DHT22;5698;47.332;11.180;2022-09-20T03:21:27;1.40;99.90
11284;DHT22;5698;47.332;11.180;2022-09-20T03:24:03;1.40;99.90
11284;DHT22;5698;47.332;11.180;2022-09-20T03:26:45;1.50;99.90
11284;DHT22;5698;47.332;11.180;2022-09-20T03:29:25;1.50;99.90
11284;DHT22;5698;47.332;11.180;2022-09-20T03:32:10;1.50;99.90
11284;DHT22;5698;47.332;11.180;2022-09-20T03:34:52;1.60;99.90
11284;DHT22;5698;47.332;11.180;2022-09-20T03:37:47;1.60;99.90
11284;DHT22;5698;47.332;11.180;2022-09-20T03:40:40;1.50;99.90
11284;DHT22;5698;47.332;11.180;2022-09-20T03:43:24;1.40;99.90
11284;DHT22;5698;47.332;11.180;2022-09-20T03:46:03;1.40;99.90
11284;DHT22;5698;47.332;11.180;2022-09-20T03:49:14;1.30;99.90
11284;DHT22;5698;47.332;11.180;2022-09-20T03:51:53;1.20;99.90
11284;DHT22;5698;47.332;11.180;2022-09-20T03:54:52;1.30;99.90
11284;DHT22;5698;47.332;11.180;2022-09-20T03:57:49;1.20;99.90
11284;DHT22;5698;47.332;11.180;2022-09-20T04:00:22;1.20;99.90
11284;DHT22;5698;47.332;11.180;2022-09-20T04:03:20;1.30;99.90
11284;DHT22;5698;47.332;11.180;2022-09-20T04:06:08;1.20;99.90
11284;DHT22;5698;47.332;11.180;2022-09-20T04:08:50;1.20;99.90
11284;DHT22;5698;47.332;11.180;2022-09-20T04:11:26;1.30;99.90
11284;DHT22;5698;47.332;11.180;2022-09-20T04:14:00;1.20;99.90
11284;DHT22;5698;47.332;11.180;2022-09-20T04:16:36;1.20;99.90
11284;DHT22;5698;47.332;11.180;2022-09-20T04:19:12;1.30;99.90
11284;DHT22;5698;47.332;11.180;2022-09-20T04:21:47;1.30;99.90
11284;DHT22;5698;47.332;11.180;2022-09-20T04:24:21;1.30;99.90
11284;DHT22;5698;47.332;11.180;2022-09-20T04:26:55;1.20;99.90
11284;DHT22;5698;47.332;11.180;2022-09-20T04:29:33;1.20;99.90
11284;DHT22;5698;47.332;11.180;2022-09-20T04:32:10;1.30;99.90
11284;DHT22;5698;47.332;11.180;2022-09-20T04:34:43;1.30;99.90
11284;DHT22;5698;47.332;11.180;2022-09-20T04:37:32;1.30;99.90
11284;DHT22;5698;47.332;11.180;2022-09-20T04:40:13;1.10;99.90
11284;DHT22;5698;47.332;11.180;2022-09-20T04:43:29;1.10;99.90
11284;DHT22;5698;47.332;11.180;2022-09-20T04:46:42;1.00;99.90
11284;DHT22;5698;47.332;11.180;2022-09-20T04:49:48;0.90;99.90
11284;DHT22;5698;47.332;11.180;2022-09-20T04:52:45;1.00;99.90
11284;DHT22;5698;47.332;11.180;2022-09-20T04:55:47;1.00;99.90
11284;DHT22;5698;47.332;11.180;2022-09-20T04:58:50;0.80;99.90
11284;DHT22;5698;47.332;11.180;2022-09-20T05:01:55;0.70;99.90
11284;DHT22;5698;47.332;11.180;2022-09-20T05:05:04;0.80;99.90
11284;DHT22;5698;47.332;11.180;2022-09-20T05:08:21;0.80;99.90
11284;DHT22;5698;47.332;11.180;2022-09-20T05:14:26;0.80;99.90
11284;DHT22;5698;47.332;11.180;2022-09-20T05:17:11;0.80;99.90
11284;DHT22;5698;47.332;11.180;2022-09-20T05:19:50;0.80;99.90
11284;DHT22;5698;47.332;11.180;2022-09-20T05:22:44;0.80;99.90
11284;DHT22;5698;47.332;11.180;2022-09-20T05:25:40;0.80;99.90
11284;DHT22;5698;47.332;11.180;2022-09-20T05:28:15;0.80;99.90
11284;DHT22;5698;47.332;11.180;2022-09-20T05:30:48;0.80;99.90
11284;DHT22;5698;47.332;11.180;2022-09-20T05:33:20;0.80;99.90
11284;DHT22;5698;47.332;11.180;2022-09-20T05:35:58;0.80;99.90
11284;DHT22;5698;47.332;11.180;2022-09-20T05:38:34;0.80;99.90
11284;DHT22;5698;47.332;11.180;2022-09-20T05:41:10;0.80;99.90
11284;DHT22;5698;47.332;11.180;2022-09-20T05:43:49;0.80;99.90
11284;DHT22;5698;47.332;11.180;2022-09-20T05:46:31;0.80;99.90
11284;DHT22;5698;47.332;11.180;2022-09-20T05:49:09;0.80;99.90
11284;DHT22;5698;47.332;11.180;2022-09-20T05:52:08;0.90;99.90
11284;DHT22;5698;47.332;11.180;2022-09-20T05:55:03;0.90;99.90
11284;DHT22;5698;47.332;11.180;2022-09-20T05:57:48;1.00;99.90
11284;DHT22;5698;47.332;11.180;2022-09-20T06:00:22;1.10;99.90
11284;DHT22;5698;47.332;11.180;2022-09-20T06:02:59;1.20;99.90
11284;DHT22;5698;47.332;11.180;2022-09-20T06:05:36;1.20;99.90
11284;DHT22;5698;47.332;11.180;2022-09-20T06:08:24;1.20;99.90
11284;DHT22;5698;47.332;11.180;2022-09-20T06:11:04;1.20;99.90
11284;DHT22;5698;47.332;11.180;2022-09-20T06:14:01;1.20;99.90
11284;DHT22;5698;47.332;11.180;2022-09-20T06:16:42;1.30;99.90
11284;DHT22;5698;47.332;11.180;2022-09-20T06:19:19;1.30;99.90
11284;DHT22;5698;47.332;11.180;2022-09-20T06:21:51;1.40;99.90
11284;DHT22;5698;47.332;11.180;2022-09-20T06:24:35;1.40;99.90
11284;DHT22;5698;47.332;11.180;2022-09-20T06:27:05;1.40;99.90
11284;DHT22;5698;47.332;11.180;2022-09-20T06:29:37;1.60;99.90
11284;DHT22;5698;47.332;11.180;2022-09-20T06:32:05;1.70;99.90
11284;DHT22;5698;47.332;11.180;2022-09-20T06:34:34;1.80;99.90
11284;DHT22;5698;47.332;11.180;2022-09-20T06:37:10;1.90;99.90
11284;DHT22;5698;47.332;11.180;2022-09-20T06:39:58;2.20;99.90
11284;DHT22;5698;47.332;11.180;2022-09-20T06:42:45;2.40;99.90
11284;DHT22;5698;47.332;11.180;2022-09-20T06:45:12;2.60;99.90
11284;DHT22;5698;47.332;11.180;2022-09-20T06:47:39;2.70;99.90
11284;DHT22;5698;47.332;11.180;2022-09-20T06:50:14;2.80;99.90
11284;DHT22;5698;47.332;11.180;2022-09-20T06:52:41;2.90;99.90
11284;DHT22;5698;47.332;11.180;2022-09-20T06:55:12;3.00;99.90
11284;DHT22;5698;47.332;11.180;2022-09-20T06:57:43;3.10;99.90
11284;DHT22;5698;47.332;11.180;2022-09-20T07:00:12;3.10;99.90
11284;DHT22;5698;47.332;11.180;2022-09-20T07:02:40;3.20;99.90
11284;DHT22;5698;47.332;11.180;2022-09-20T07:05:13;3.20;99.90
11284;DHT22;5698;47.332;11.180;2022-09-20T07:07:40;3.30;99.90
11284;DHT22;5698;47.332;11.180;2022-09-20T07:10:09;3.40;99.90
11284;DHT22;5698;47.332;11.180;2022-09-20T07:12:37;3.40;99.90
11284;DHT22;5698;47.332;11.180;2022-09-20T07:15:05;3.50;99.90
11284;DHT22;5698;47.332;11.180;2022-09-20T07:17:32;3.60;99.90
11284;DHT22;5698;47.332;11.180;2022-09-20T07:20:00;3.60;99.90
11284;DHT22;5698;47.332;11.180;2022-09-20T07:22:28;3.60;99.90
11284;DHT22;5698;47.332;11.180;2022-09-20T07:24:55;3.70;99.90
11284;DHT22;5698;47.332;11.180;2022-09-20T07:27:24;3.80;99.90
11284;DHT22;5698;47.332;11.180;2022-09-20T07:29:51;3.90;99.90
11284;DHT22;5698;47.332;11.180;2022-09-20T07:32:18;4.10;99.90
11284;DHT22;5698;47.332;11.180;2022-09-20T07:34:45;4.40;99.90
11284;DHT22;5698;47.332;11.180;2022-09-20T07:37:12;4.80;99.90
11284;DHT22;5698;47.332;11.180;2022-09-20T07:39:41;5.10;99.90
11284;DHT22;5698;47.332;11.180;2022-09-20T07:42:08;5.50;99.90
11284;DHT22;5698;47.332;11.180;2022-09-20T07:44:35;5.80;99.90
11284;DHT22;5698;47.332;11.180;2022-09-20T07:47:05;6.10;99.90
11284;DHT22;5698;47.332;11.180;2022-09-20T07:49:33;6.40;99.90
11284;DHT22;5698;47.332;11.180;2022-09-20T07:52:00;6.60;99.90
11284;DHT22;5698;47.332;11.180;2022-09-20T07:54:28;6.70;99.90
11284;DHT22;5698;47.332;11.180;2022-09-20T07:56:57;6.90;99.90
11284;DHT22;5698;47.332;11.180;2022-09-20T07:59:24;7.20;99.90
11284;DHT22;5698;47.332;11.180;2022-09-20T08:01:51;7.40;99.90
11284;DHT22;5698;47.332;11.180;2022-09-20T08:04:18;7.70;99.90
11284;DHT22;5698;47.332;11.180;2022-09-20T08:06:45;8.00;99.90
11284;DHT22;5698;47.332;11.180;2022-09-20T08:09:13;8.10;99.90
11284;DHT22;5698;47.332;11.180;2022-09-20T08:11:41;8.40;99.90
11284;DHT22;5698;47.332;11.180;2022-09-20T08:14:12;8.70;99.90
11284;DHT22;5698;47.332;11.180;2022-09-20T08:16:42;9.00;99.90
11284;DHT22;5698;47.332;11.180;2022-09-20T08:19:14;9.30;99.90
11284;DHT22;5698;47.332;11.180;2022-09-20T08:21:42;9.70;99.90
11284;DHT22;5698;47.332;11.180;2022-09-20T08:24:09;9.90;99.90
11284;DHT22;5698;47.332;11.180;2022-09-20T08:26:36;10.30;99.90
11284;DHT22;5698;47.332;11.180;2022-09-20T08:29:04;10.40;99.90
11284;DHT22;5698;47.332;11.180;2022-09-20T08:31:35;10.40;99.90
11284;DHT22;5698;47.332;11.180;2022-09-20T08:34:03;10.80;99.90
11284;DHT22;5698;47.332;11.180;2022-09-20T08:36:32;11.10;99.90
11284;DHT22;5698;47.332;11.180;2022-09-20T08:39:00;11.30;99.90
11284;DHT22;5698;47.332;11.180;2022-09-20T08:41:30;11.60;99.90
11284;DHT22;5698;47.332;11.180;2022-09-20T08:44:01;11.90;99.90
11284;DHT22;5698;47.332;11.180;2022-09-20T08:46:33;12.10;99.90
11284;DHT22;5698;47.332;11.180;2022-09-20T08:49:04;12.10;99.90
11284;DHT22;5698;47.332;11.180;2022-09-20T08:51:37;12.20;99.90
11284;DHT22;5698;47.332;11.180;2022-09-20T08:54:06;12.10;99.90
11284;DHT22;5698;47.332;11.180;2022-09-20T08:56:37;12.10;99.90
11284;DHT22;5698;47.332;11.180;2022-09-20T08:59:07;12.20;99.90
11284;DHT22;5698;47.332;11.180;2022-09-20T09:01:38;12.30;99.90
11284;DHT22;5698;47.332;11.180;2022-09-20T09:04:12;12.30;99.90
11284;DHT22;5698;47.332;11.180;2022-09-20T09:06:40;12.30;99.90
11284;DHT22;5698;47.332;11.180;2022-09-20T09:09:13;12.30;99.90
11284;DHT22;5698;47.332;11.180;2022-09-20T09:11:43;12.30;99.10
11284;DHT22;5698;47.332;11.180;2022-09-20T09:14:14;12.60;99.90
11284;DHT22;5698;47.332;11.180;2022-09-20T09:17:03;12.90;98.50
11284;DHT22;5698;47.332;11.180;2022-09-20T09:19:31;13.60;97.50
11284;DHT22;5698;47.332;11.180;2022-09-20T09:22:00;13.80;97.50
11284;DHT22;5698;47.332;11.180;2022-09-20T09:24:28;13.80;94.70
11284;DHT22;5698;47.332;11.180;2022-09-20T09:27:05;13.70;96.10
11284;DHT22;5698;47.332;11.180;2022-09-20T09:29:33;13.80;96.40
11284;DHT22;5698;47.332;11.180;2022-09-20T09:32:19;13.90;96.00
11284;DHT22;5698;47.332;11.180;2022-09-20T09:34:46;13.90;95.40
11284;DHT22;5698;47.332;11.180;2022-09-20T09:37:25;13.80;95.20
11284;DHT22;5698;47.332;11.180;2022-09-20T09:40:10;14.00;93.00
11284;DHT22;5698;47.332;11.180;2022-09-20T09:42:47;14.20;90.90
11284;DHT22;5698;47.332;11.180;2022-09-20T09:45:28;14.20;88.20
11284;DHT22;5698;47.332;11.180;2022-09-20T09:47:59;14.10;89.00
11284;DHT22;5698;47.332;11.180;2022-09-20T09:50:28;14.30;87.30
11284;DHT22;5698;47.332;11.180;2022-09-20T09:53:01;14.70;87.40
11284;DHT22;5698;47.332;11.180;2022-09-20T09:55:48;15.10;88.20
11284;DHT22;5698;47.332;11.180;2022-09-20T09:58:29;15.60;85.30
11284;DHT22;5698;47.332;11.180;2022-09-20T10:01:02;15.50;85.60
11284;DHT22;5698;47.332;11.180;2022-09-20T10:03:44;15.40;84.80
11284;DHT22;5698;47.332;11.180;2022-09-20T10:06:21;15.30;83.70
11284;DHT22;5698;47.332;11.180;2022-09-20T10:09:06;14.80;83.30
11284;DHT22;5698;47.332;11.180;2022-09-20T10:11:49;14.50;84.00
11284;DHT22;5698;47.332;11.180;2022-09-20T10:14:33;14.30;83.40
11284;DHT22;5698;47.332;11.180;2022-09-20T10:17:15;14.00;79.30
11284;DHT22;5698;47.332;11.180;2022-09-20T10:19:59;13.90;84.90
11284;DHT22;5698;47.332;11.180;2022-09-20T10:22:34;13.80;86.10
11284;DHT22;5698;47.332;11.180;2022-09-20T10:25:12;13.80;85.00
11284;DHT22;5698;47.332;11.180;2022-09-20T10:27:56;13.80;84.90
11284;DHT22;5698;47.332;11.180;2022-09-20T10:30:31;14.00;84.00
11284;DHT22;5698;47.332;11.180;2022-09-20T10:33:05;14.10;79.70
11284;DHT22;5698;47.332;11.180;2022-09-20T10:35:52;14.10;82.90
11284;DHT22;5698;47.332;11.180;2022-09-20T10:38:24;13.80;83.00
11284;DHT22;5698;47.332;11.180;2022-09-20T10:41:24;13.50;80.60
11284;DHT22;5698;47.332;11.180;2022-09-20T10:44:18;13.10;84.00
11284;DHT22;5698;47.332;11.180;2022-09-20T10:46:54;13.20;84.80
11284;DHT22;5698;47.332;11.180;2022-09-20T10:49:34;13.50;85.90
11284;DHT22;5698;47.332;11.180;2022-09-20T10:52:14;14.20;81.60
11284;DHT22;5698;47.332;11.180;2022-09-20T10:54:51;14.90;81.20
11284;DHT22;5698;47.332;11.180;2022-09-20T10:57:39;15.50;79.90
11284;DHT22;5698;47.332;11.180;2022-09-20T11:00:19;16.00;74.10
11284;DHT22;5698;47.332;11.180;2022-09-20T11:02:59;16.60;73.10
11284;DHT22;5698;47.332;11.180;2022-09-20T11:05:34;16.90;70.10
11284;DHT22;5698;47.332;11.180;2022-09-20T11:08:10;16.80;69.60
11284;DHT22;5698;47.332;11.180;2022-09-20T11:10:42;16.70;68.50
11284;DHT22;5698;47.332;11.180;2022-09-20T11:13:17;16.30;69.90
11284;DHT22;5698;47.332;11.180;2022-09-20T11:15:48;16.10;73.10
11284;DHT22;5698;47.332;11.180;2022-09-20T11:18:21;15.60;74.40
11284;DHT22;5698;47.332;11.180;2022-09-20T11:20:55;15.40;75.70
11284;DHT22;5698;47.332;11.180;2022-09-20T11:23:29;15.30;76.40
11284;DHT22;5698;47.332;11.180;2022-09-20T11:26:06;15.20;76.80
11284;DHT22;5698;47.332;11.180;2022-09-20T11:28:36;15.20;76.60
11284;DHT22;5698;47.332;11.180;2022-09-20T11:31:10;15.30;76.00
11284;DHT22;5698;47.332;11.180;2022-09-20T11:33:44;15.40;72.90
11284;DHT22;5698;47.332;11.180;2022-09-20T11:36:16;15.30;73.40
11284;DHT22;5698;47.332;11.180;2022-09-20T11:38:50;15.10;73.90
11284;DHT22;5698;47.332;11.180;2022-09-20T11:41:21;14.90;73.70
11284;DHT22;5698;47.332;11.180;2022-09-20T11:43:51;14.70;75.20
11284;DHT22;5698;47.332;11.180;2022-09-20T11:46:22;14.40;76.40
11284;DHT22;5698;47.332;11.180;2022-09-20T11:48:56;14.10;78.70
11284;DHT22;5698;47.332;11.180;2022-09-20T11:55:16;13.90;81.70
11284;DHT22;5698;47.332;11.180;2022-09-20T11:57:44;13.70;84.10
11284;DHT22;5698;47.332;11.180;2022-09-20T12:00:12;13.50;84.90
11284;DHT22;5698;47.332;11.180;2022-09-20T12:02:45;13.30;84.10
11284;DHT22;5698;47.332;11.180;2022-09-20T12:05:26;13.10;82.10
11284;DHT22;5698;47.332;11.180;2022-09-20T12:07:57;12.80;85.50
11284;DHT22;5698;47.332;11.180;2022-09-20T12:10:29;12.70;86.20
11284;DHT22;5698;47.332;11.180;2022-09-20T12:12:59;12.50;85.60
11284;DHT22;5698;47.332;11.180;2022-09-20T12:15:29;12.50;85.50
11284;DHT22;5698;47.332;11.180;2022-09-20T12:18:12;12.40;88.60
11284;DHT22;5698;47.332;11.180;2022-09-20T12:21:02;12.40;89.90
11284;DHT22;5698;47.332;11.180;2022-09-20T12:23:58;12.20;90.90
11284;DHT22;5698;47.332;11.180;2022-09-20T12:26:44;12.20;91.10
11284;DHT22;5698;47.332;11.180;2022-09-20T12:32:45;12.20;91.00
11284;DHT22;5698;47.332;11.180;2022-09-20T12:38:37;12.00;90.60
11284;DHT22;5698;47.332;11.180;2022-09-20T12:41:11;12.00;91.50
11284;DHT22;5698;47.332;11.180;2022-09-20T12:43:50;12.00;91.50
11284;DHT22;5698;47.332;11.180;2022-09-20T12:46:29;12.00;91.40
11284;DHT22;5698;47.332;11.180;2022-09-20T12:49:28;12.10;92.30
11284;DHT22;5698;47.332;11.180;2022-09-20T12:52:35;12.30;91.40
11284;DHT22;5698;47.332;11.180;2022-09-20T12:55:36;12.40;91.60
11284;DHT22;5698;47.332;11.180;2022-09-20T12:58:16;12.30;92.00
11284;DHT22;5698;47.332;11.180;2022-09-20T13:00:47;12.30;92.10
11284;DHT22;5698;47.332;11.180;2022-09-20T13:03:29;12.30;92.40
11284;DHT22;5698;47.332;11.180;2022-09-20T13:06:22;12.30;92.90
11284;DHT22;5698;47.332;11.180;2022-09-20T13:08:54;12.40;92.90
11284;DHT22;5698;47.332;11.180;2022-09-20T13:11:28;12.40;93.00
11284;DHT22;5698;47.332;11.180;2022-09-20T13:13:57;12.30;93.00
11284;DHT22;5698;47.332;11.180;2022-09-20T13:16:31;12.20;93.20
11284;DHT22;5698;47.332;11.180;2022-09-20T13:19:02;12.10;93.30
11284;DHT22;5698;47.332;11.180;2022-09-20T13:21:31;11.80;93.70
11284;DHT22;5698;47.332;11.180;2022-09-20T13:23:58;11.60;94.60
11284;DHT22;5698;47.332;11.180;2022-09-20T13:26:33;11.60;94.80
11284;DHT22;5698;47.332;11.180;2022-09-20T13:29:02;11.50;95.40
11284;DHT22;5698;47.332;11.180;2022-09-20T13:31:33;11.40;94.70
11284;DHT22;5698;47.332;11.180;2022-09-20T13:34:21;11.30;95.00
11284;DHT22;5698;47.332;11.180;2022-09-20T13:36:53;11.10;95.00
11284;DHT22;5698;47.332;11.180;2022-09-20T13:39:33;11.00;95.00
11284;DHT22;5698;47.332;11.180;2022-09-20T13:42:06;11.10;95.50
11284;DHT22;5698;47.332;11.180;2022-09-20T13:44:36;11.10;95.60
11284;DHT22;5698;47.332;11.180;2022-09-20T13:50:02;11.10;95.80
11284;DHT22;5698;47.332;11.180;2022-09-20T13:52:44;11.00;95.90
11284;DHT22;5698;47.332;11.180;2022-09-20T13:55:20;10.80;96.40
11284;DHT22;5698;47.332;11.180;2022-09-20T13:57:47;10.70;96.90
11284;DHT22;5698;47.332;11.180;2022-09-20T14:00:15;10.60;96.30
11284;DHT22;5698;47.332;11.180;2022-09-20T14:02:42;10.60;96.80
11284;DHT22;5698;47.332;11.180;2022-09-20T14:05:16;10.50;97.10
11284;DHT22;5698;47.332;11.180;2022-09-20T14:07:45;10.40;97.50
11284;DHT22;5698;47.332;11.180;2022-09-20T14:10:30;10.20;97.80
11284;DHT22;5698;47.332;11.180;2022-09-20T14:12:58;10.20;98.10
11284;DHT22;5698;47.332;11.180;2022-09-20T14:15:31;10.00;99.00
11284;DHT22;5698;47.332;11.180;2022-09-20T14:18:00;9.80;99.20
11284;DHT22;5698;47.332;11.180;2022-09-20T14:20:30;9.90;98.90
11284;DHT22;5698;47.332;11.180;2022-09-20T14:22:57;9.90;99.10
11284;DHT22;5698;47.332;11.180;2022-09-20T14:25:26;9.90;99.40
11284;DHT22;5698;47.332;11.180;2022-09-20T14:28:12;9.90;99.80
11284;DHT22;5698;47.332;11.180;2022-09-20T14:30:42;9.90;99.90
11284;DHT22;5698;47.332;11.180;2022-09-20T14:33:14;9.60;99.90
11284;DHT22;5698;47.332;11.180;2022-09-20T14:35:48;9.50;99.90
11284;DHT22;5698;47.332;11.180;2022-09-20T14:38:17;9.50;99.90
11284;DHT22;5698;47.332;11.180;2022-09-20T14:40:48;9.40;99.90
11284;DHT22;5698;47.332;11.180;2022-09-20T14:43:25;9.50;99.90
11284;DHT22;5698;47.332;11.180;2022-09-20T14:45:56;9.50;99.90
11284;DHT22;5698;47.332;11.180;2022-09-20T14:48:33;9.40;99.90
11284;DHT22;5698;47.332;11.180;2022-09-20T14:51:20;9.30;99.90
11284;DHT22;5698;47.332;11.180;2022-09-20T14:53:50;9.20;99.90
11284;DHT22;5698;47.332;11.180;2022-09-20T14:56:26;9.20;99.90
11284;DHT22;5698;47.332;11.180;2022-09-20T14:59:04;9.10;99.90
11284;DHT22;5698;47.332;11.180;2022-09-20T15:01:32;9.10;99.90
11284;DHT22;5698;47.332;11.180;2022-09-20T15:04:06;9.00;99.90
11284;DHT22;5698;47.332;11.180;2022-09-20T15:06:36;9.00;99.90
11284;DHT22;5698;47.332;11.180;2022-09-20T15:09:04;9.00;99.90
11284;DHT22;5698;47.332;11.180;2022-09-20T15:11:32;9.00;99.90
11284;DHT22;5698;47.332;11.180;2022-09-20T15:13:59;9.00;99.90
11284;DHT22;5698;47.332;11.180;2022-09-20T15:16:26;8.90;99.90
11284;DHT22;5698;47.332;11.180;2022-09-20T15:18:54;8.70;99.90
11284;DHT22;5698;47.332;11.180;2022-09-20T15:21:21;8.60;99.90
11284;DHT22;5698;47.332;11.180;2022-09-20T15:23:49;8.50;99.90
11284;DHT22;5698;47.332;11.180;2022-09-20T15:26:19;8.50;99.90
11284;DHT22;5698;47.332;11.180;2022-09-20T15:28:47;8.50;99.90
11284;DHT22;5698;47.332;11.180;2022-09-20T15:31:14;8.50;99.90
11284;DHT22;5698;47.332;11.180;2022-09-20T15:33:43;8.30;99.90
11284;DHT22;5698;47.332;11.180;2022-09-20T15:36:10;8.40;99.90
11284;DHT22;5698;47.332;11.180;2022-09-20T15:38:37;8.30;99.90
11284;DHT22;5698;47.332;11.180;2022-09-20T15:41:06;8.30;99.90
11284;DHT22;5698;47.332;11.180;2022-09-20T15:43:33;8.30;99.90
11284;DHT22;5698;47.332;11.180;2022-09-20T15:46:07;8.20;99.90
11284;DHT22;5698;47.332;11.180;2022-09-20T15:48:41;8.20;99.90
11284;DHT22;5698;47.332;11.180;2022-09-20T15:51:09;8.20;99.90
11284;DHT22;5698;47.332;11.180;2022-09-20T15:53:38;8.10;99.90
11284;DHT22;5698;47.332;11.180;2022-09-20T15:56:15;8.10;99.90
11284;DHT22;5698;47.332;11.180;2022-09-20T15:58:44;8.00;99.90
11284;DHT22;5698;47.332;11.180;2022-09-20T16:01:13;7.90;99.90
11284;DHT22;5698;47.332;11.180;2022-09-20T16:03:42;7.80;99.90
11284;DHT22;5698;47.332;11.180;2022-09-20T16:06:09;7.70;99.90
11284;DHT22;5698;47.332;11.180;2022-09-20T16:08:37;7.80;99.90
11284;DHT22;5698;47.332;11.180;2022-09-20T16:11:06;7.80;99.90
11284;DHT22;5698;47.332;11.180;2022-09-20T16:13:34;7.80;99.90
11284;DHT22;5698;47.332;11.180;2022-09-20T16:16:02;7.90;99.90
11284;DHT22;5698;47.332;11.180;2022-09-20T16:18:29;7.90;99.90
11284;DHT22;5698;47.332;11.180;2022-09-20T16:21:15;7.90;99.90
11284;DHT22;5698;47.332;11.180;2022-09-20T16:23:46;7.80;99.90
11284;DHT22;5698;47.332;11.180;2022-09-20T16:26:13;7.80;99.90
11284;DHT22;5698;47.332;11.180;2022-09-20T16:28:42;7.80;99.90
11284;DHT22;5698;47.332;11.180;2022-09-20T16:31:28;7.70;99.90
11284;DHT22;5698;47.332;11.180;2022-09-20T16:33:55;7.70;99.90
11284;DHT22;5698;47.332;11.180;2022-09-20T16:36:22;7.40;99.90
11284;DHT22;5698;47.332;11.180;2022-09-20T16:38:49;7.40;99.90
11284;DHT22;5698;47.332;11.180;2022-09-20T16:41:16;7.40;99.90
11284;DHT22;5698;47.332;11.180;2022-09-20T16:43:45;7.40;99.90
11284;DHT22;5698;47.332;11.180;2022-09-20T16:46:14;7.30;99.90
11284;DHT22;5698;47.332;11.180;2022-09-20T16:48:41;7.30;99.90
11284;DHT22;5698;47.332;11.180;2022-09-20T16:51:09;7.30;99.90
11284;DHT22;5698;47.332;11.180;2022-09-20T16:53:36;7.20;99.90
11284;DHT22;5698;47.332;11.180;2022-09-20T16:56:03;7.10;99.90
11284;DHT22;5698;47.332;11.180;2022-09-20T16:58:32;7.20;99.90
11284;DHT22;5698;47.332;11.180;2022-09-20T17:01:05;7.20;99.90